sensor_id;sensor_type;location;lat;lon;timestamp;pressure;altitude;pressure_sealevel;temperature;humidity
76746;BME280;65671;49.976;20.038;2023-07-31T00:02:22;97524.22;;;16.61;100.00
76746;BME280;65671;49.976;20.038;2023-07-31T00:04:47;97526.06;;;16.64;100.00
76746;BME280;65671;49.976;20.038;2023-07-31T00:07:14;97522.88;;;16.65;100.00
76746;BME280;65671;49.976;20.038;2023-07-31T00:09:40;97526.38;;;16.66;100.00
76746;BME280;65671;49.976;20.038;2023-07-31T00:12:05;97525.09;;;16.58;100.00
76746;BME280;65671;49.976;20.038;2023-07-31T00:14:31;97525.00;;;16.61;100.00
76746;BME280;65671;49.976;20.038;2023-07-31T00:16:56;97524.09;;;16.52;100.00
76746;BME280;65671;49.976;20.038;2023-07-31T00:19:22;97523.47;;;16.60;100.00
76746;BME280;65671;49.976;20.038;2023-07-31T00:21:47;97523.91;;;16.59;100.00
76746;BME280;65671;49.976;20.038;2023-07-31T00:24:13;97522.06;;;16.56;100.00
76746;BME280;65671;49.976;20.038;2023-07-31T00:26:38;97523.56;;;16.57;100.00
76746;BME280;65671;49.976;20.038;2023-07-31T00:29:04;97526.38;;;16.66;100.00
76746;BME280;65671;49.976;20.038;2023-07-31T00:31:29;97537.31;;;16.66;100.00
76746;BME280;65671;49.976;20.038;2023-07-31T00:33:55;97535.81;;;16.65;100.00
76746;BME280;65671;49.976;20.038;2023-07-31T00:36:20;97535.25;;;16.70;100.00
76746;BME280;65671;49.976;20.038;2023-07-31T00:38:46;97535.66;;;16.68;100.00
76746;BME280;65671;49.976;20.038;2023-07-31T00:41:11;97535.03;;;16.64;100.00
76746;BME280;65671;49.976;20.038;2023-07-31T00:43:37;97533.91;;;16.74;100.00
76746;BME280;65671;49.976;20.038;2023-07-31T00:46:02;97532.69;;;16.76;100.00
76746;BME280;65671;49.976;20.038;2023-07-31T00:48:28;97538.59;;;16.74;100.00
76746;BME280;65671;49.976;20.038;2023-07-31T00:50:53;97539.72;;;16.77;100.00
76746;BME280;65671;49.976;20.038;2023-07-31T00:53:19;97538.16;;;16.76;100.00
76746;BME280;65671;49.976;20.038;2023-07-31T00:55:45;97542.88;;;16.75;100.00
76746;BME280;65671;49.976;20.038;2023-07-31T00:58:10;97540.03;;;16.79;100.00
76746;BME280;65671;49.976;20.038;2023-07-31T01:00:36;97529.19;;;16.75;100.00
76746;BME280;65671;49.976;20.038;2023-07-31T01:03:01;97538.94;;;16.76;100.00
76746;BME280;65671;49.976;20.038;2023-07-31T01:08:28;97537.72;;;16.77;100.00
76746;BME280;65671;49.976;20.038;2023-07-31T01:11:04;97532.31;;;16.86;100.00
76746;BME280;65671;49.976;20.038;2023-07-31T01:13:32;97535.63;;;16.81;100.00
76746;BME280;65671;49.976;20.038;2023-07-31T01:15:58;97530.81;;;16.85;100.00
76746;BME280;65671;49.976;20.038;2023-07-31T01:18:23;97530.22;;;16.90;100.00
76746;BME280;65671;49.976;20.038;2023-07-31T01:21:12;97537.38;;;16.88;100.00
76746;BME280;65671;49.976;20.038;2023-07-31T01:23:48;97535.91;;;16.96;100.00
76746;BME280;65671;49.976;20.038;2023-07-31T01:26:21;97539.97;;;16.91;100.00
76746;BME280;65671;49.976;20.038;2023-07-31T01:31:23;97547.91;;;16.98;100.00
76746;BME280;65671;49.976;20.038;2023-07-31T01:33:50;97542.19;;;17.05;100.00
76746;BME280;65671;49.976;20.038;2023-07-31T01:36:18;97547.38;;;17.03;100.00
76746;BME280;65671;49.976;20.038;2023-07-31T01:38:43;97542.81;;;17.09;100.00
76746;BME280;65671;49.976;20.038;2023-07-31T01:41:08;97542.97;;;17.06;100.00
76746;BME280;65671;49.976;20.038;2023-07-31T01:43:34;97549.84;;;17.10;100.00
76746;BME280;65671;49.976;20.038;2023-07-31T01:45:59;97539.66;;;17.11;100.00
76746;BME280;65671;49.976;20.038;2023-07-31T01:48:25;97548.50;;;17.15;100.00
76746;BME280;65671;49.976;20.038;2023-07-31T01:50:50;97549.59;;;17.17;100.00
76746;BME280;65671;49.976;20.038;2023-07-31T01:53:16;97555.84;;;17.18;100.00
76746;BME280;65671;49.976;20.038;2023-07-31T01:55:41;97550.22;;;17.21;100.00
76746;BME280;65671;49.976;20.038;2023-07-31T01:58:07;97554.16;;;17.20;100.00
76746;BME280;65671;49.976;20.038;2023-07-31T02:00:32;97547.75;;;17.14;100.00
76746;BME280;65671;49.976;20.038;2023-07-31T02:02:59;97551.09;;;17.18;100.00
76746;BME280;65671;49.976;20.038;2023-07-31T02:05:25;97549.00;;;17.22;100.00
76746;BME280;65671;49.976;20.038;2023-07-31T02:07:50;97554.47;;;17.22;100.00
76746;BME280;65671;49.976;20.038;2023-07-31T02:10:16;97548.94;;;17.13;100.00
76746;BME280;65671;49.976;20.038;2023-07-31T02:12:41;97555.38;;;17.19;100.00
76746;BME280;65671;49.976;20.038;2023-07-31T02:15:07;97552.63;;;17.19;100.00
76746;BME280;65671;49.976;20.038;2023-07-31T02:17:32;97556.72;;;17.15;100.00
76746;BME280;65671;49.976;20.038;2023-07-31T02:19:58;97555.00;;;17.08;100.00
76746;BME280;65671;49.976;20.038;2023-07-31T02:22:23;97566.44;;;17.16;100.00
76746;BME280;65671;49.976;20.038;2023-07-31T02:24:49;97563.81;;;17.12;100.00
76746;BME280;65671;49.976;20.038;2023-07-31T02:27:14;97576.41;;;17.10;100.00
76746;BME280;65671;49.976;20.038;2023-07-31T02:29:40;97577.97;;;17.11;100.00
76746;BME280;65671;49.976;20.038;2023-07-31T02:32:05;97584.19;;;17.11;100.00
76746;BME280;65671;49.976;20.038;2023-07-31T02:34:31;97585.28;;;17.14;100.00
76746;BME280;65671;49.976;20.038;2023-07-31T02:36:56;97591.31;;;17.09;100.00
76746;BME280;65671;49.976;20.038;2023-07-31T02:39:22;97593.59;;;17.10;100.00
76746;BME280;65671;49.976;20.038;2023-07-31T02:41:47;97594.81;;;17.09;100.00
76746;BME280;65671;49.976;20.038;2023-07-31T02:44:13;97600.28;;;17.09;100.00
76746;BME280;65671;49.976;20.038;2023-07-31T02:46:40;97587.97;;;16.92;100.00
76746;BME280;65671;49.976;20.038;2023-07-31T02:49:05;97597.91;;;16.99;100.00
76746;BME280;65671;49.976;20.038;2023-07-31T02:51:31;97602.38;;;17.05;100.00
76746;BME280;65671;49.976;20.038;2023-07-31T02:53:56;97603.50;;;16.95;100.00
76746;BME280;65671;49.976;20.038;2023-07-31T02:56:22;97605.69;;;17.00;100.00
76746;BME280;65671;49.976;20.038;2023-07-31T02:58:47;97605.03;;;16.96;100.00
76746;BME280;65671;49.976;20.038;2023-07-31T03:01:13;97617.19;;;16.95;100.00
76746;BME280;65671;49.976;20.038;2023-07-31T03:03:38;97616.09;;;16.93;100.00
76746;BME280;65671;49.976;20.038;2023-07-31T03:06:03;97621.13;;;16.94;100.00
76746;BME280;65671;49.976;20.038;2023-07-31T03:08:29;97619.72;;;16.90;100.00
76746;BME280;65671;49.976;20.038;2023-07-31T03:10:54;97624.41;;;16.89;100.00
76746;BME280;65671;49.976;20.038;2023-07-31T03:13:21;97620.16;;;16.88;100.00
76746;BME280;65671;49.976;20.038;2023-07-31T03:15:47;97628.03;;;16.86;100.00
76746;BME280;65671;49.976;20.038;2023-07-31T03:18:12;97625.47;;;16.70;100.00
76746;BME280;65671;49.976;20.038;2023-07-31T03:20:42;97629.28;;;16.72;100.00
76746;BME280;65671;49.976;20.038;2023-07-31T03:23:07;97627.09;;;16.67;100.00
76746;BME280;65671;49.976;20.038;2023-07-31T03:25:33;97636.63;;;16.63;100.00
76746;BME280;65671;49.976;20.038;2023-07-31T03:27:58;97630.25;;;16.66;100.00
76746;BME280;65671;49.976;20.038;2023-07-31T03:30:23;97636.63;;;16.63;100.00
76746;BME280;65671;49.976;20.038;2023-07-31T03:32:49;97627.78;;;16.59;100.00
76746;BME280;65671;49.976;20.038;2023-07-31T03:35:14;97626.66;;;16.56;100.00
76746;BME280;65671;49.976;20.038;2023-07-31T03:37:40;97631.25;;;16.59;100.00
76746;BME280;65671;49.976;20.038;2023-07-31T03:40:06;97630.16;;;16.57;100.00
76746;BME280;65671;49.976;20.038;2023-07-31T03:42:31;97627.00;;;16.58;100.00
76746;BME280;65671;49.976;20.038;2023-07-31T03:44:57;97626.34;;;16.54;100.00
76746;BME280;65671;49.976;20.038;2023-07-31T03:47:22;97626.13;;;16.61;100.00
76746;BME280;65671;49.976;20.038;2023-07-31T03:49:48;97633.25;;;16.59;100.00
76746;BME280;65671;49.976;20.038;2023-07-31T03:52:13;97616.06;;;16.46;100.00
76746;BME280;65671;49.976;20.038;2023-07-31T03:54:38;97618.69;;;16.62;100.00
76746;BME280;65671;49.976;20.038;2023-07-31T03:57:04;97622.84;;;16.66;100.00
76746;BME280;65671;49.976;20.038;2023-07-31T03:59:29;97626.03;;;16.65;100.00
76746;BME280;65671;49.976;20.038;2023-07-31T04:01:55;97625.47;;;16.57;100.00
76746;BME280;65671;49.976;20.038;2023-07-31T04:04:20;97620.31;;;16.59;100.00
76746;BME280;65671;49.976;20.038;2023-07-31T04:06:46;97620.88;;;16.67;100.00
76746;BME280;65671;49.976;20.038;2023-07-31T04:09:11;97624.22;;;16.84;100.00
76746;BME280;65671;49.976;20.038;2023-07-31T04:11:37;97618.53;;;16.91;100.00
76746;BME280;65671;49.976;20.038;2023-07-31T04:14:02;97621.38;;;16.87;100.00
76746;BME280;65671;49.976;20.038;2023-07-31T04:16:28;97625.88;;;16.81;100.00
76746;BME280;65671;49.976;20.038;2023-07-31T04:18:53;97633.59;;;16.95;100.00
76746;BME280;65671;49.976;20.038;2023-07-31T04:21:18;97637.28;;;17.01;100.00
76746;BME280;65671;49.976;20.038;2023-07-31T04:23:44;97637.13;;;17.17;100.00
76746;BME280;65671;49.976;20.038;2023-07-31T04:26:09;97624.94;;;17.31;100.00
76746;BME280;65671;49.976;20.038;2023-07-31T04:28:35;97625.31;;;17.20;100.00
76746;BME280;65671;49.976;20.038;2023-07-31T04:31:00;97624.66;;;17.16;100.00
76746;BME280;65671;49.976;20.038;2023-07-31T04:33:25;97632.56;;;17.14;100.00
76746;BME280;65671;49.976;20.038;2023-07-31T04:35:52;97632.56;;;17.14;100.00
76746;BME280;65671;49.976;20.038;2023-07-31T04:38:19;97639.16;;;17.04;100.00
76746;BME280;65671;49.976;20.038;2023-07-31T04:40:45;97633.34;;;17.02;100.00
76746;BME280;65671;49.976;20.038;2023-07-31T04:43:10;97640.97;;;17.20;100.00
76746;BME280;65671;49.976;20.038;2023-07-31T04:45:35;97640.56;;;17.30;100.00
76746;BME280;65671;49.976;20.038;2023-07-31T04:48:01;97640.19;;;17.19;100.00
76746;BME280;65671;49.976;20.038;2023-07-31T04:50:26;97649.50;;;17.44;100.00
76746;BME280;65671;49.976;20.038;2023-07-31T04:52:52;97651.28;;;17.38;100.00
76746;BME280;65671;49.976;20.038;2023-07-31T04:55:17;97653.50;;;17.30;100.00
76746;BME280;65671;49.976;20.038;2023-07-31T04:57:43;97660.75;;;17.24;100.00
76746;BME280;65671;49.976;20.038;2023-07-31T05:00:08;97662.53;;;17.18;100.00
76746;BME280;65671;49.976;20.038;2023-07-31T05:02:34;97660.63;;;17.27;100.00
76746;BME280;65671;49.976;20.038;2023-07-31T05:04:59;97662.22;;;17.38;100.00
76746;BME280;65671;49.976;20.038;2023-07-31T05:07:25;97662.09;;;17.19;100.00
76746;BME280;65671;49.976;20.038;2023-07-31T05:09:50;97668.19;;;17.23;100.00
76746;BME280;65671;49.976;20.038;2023-07-31T05:12:16;97671.97;;;17.04;100.00
76746;BME280;65671;49.976;20.038;2023-07-31T05:14:41;97682.19;;;16.79;100.00
76746;BME280;65671;49.976;20.038;2023-07-31T05:17:07;97689.59;;;17.03;100.00
76746;BME280;65671;49.976;20.038;2023-07-31T05:19:32;97695.13;;;17.12;100.00
76746;BME280;65671;49.976;20.038;2023-07-31T05:21:58;97685.13;;;16.97;100.00
76746;BME280;65671;49.976;20.038;2023-07-31T05:24:23;97690.97;;;17.20;100.00
76746;BME280;65671;49.976;20.038;2023-07-31T05:26:49;97693.47;;;17.27;100.00
76746;BME280;65671;49.976;20.038;2023-07-31T05:29:14;97692.84;;;17.23;100.00
76746;BME280;65671;49.976;20.038;2023-07-31T05:31:39;97697.41;;;17.26;100.00
76746;BME280;65671;49.976;20.038;2023-07-31T05:34:05;97693.19;;;17.47;100.00
76746;BME280;65671;49.976;20.038;2023-07-31T05:36:30;97690.97;;;17.55;100.00
76746;BME280;65671;49.976;20.038;2023-07-31T05:38:56;97695.88;;;17.60;100.00
76746;BME280;65671;49.976;20.038;2023-07-31T05:41:21;97694.69;;;17.48;100.00
76746;BME280;65671;49.976;20.038;2023-07-31T05:43:47;97703.53;;;17.30;100.00
76746;BME280;65671;49.976;20.038;2023-07-31T05:46:12;97698.59;;;17.38;100.00
76746;BME280;65671;49.976;20.038;2023-07-31T05:48:37;97705.44;;;17.55;100.00
76746;BME280;65671;49.976;20.038;2023-07-31T05:51:03;97693.38;;;17.65;100.00
76746;BME280;65671;49.976;20.038;2023-07-31T05:53:28;97699.59;;;17.88;100.00
76746;BME280;65671;49.976;20.038;2023-07-31T05:55:54;97697.41;;;18.04;100.00
76746;BME280;65671;49.976;20.038;2023-07-31T05:58:19;97701.31;;;18.25;100.00
76746;BME280;65671;49.976;20.038;2023-07-31T06:00:45;97705.50;;;18.38;100.00
76746;BME280;65671;49.976;20.038;2023-07-31T06:03:10;97706.38;;;18.57;100.00
76746;BME280;65671;49.976;20.038;2023-07-31T06:05:36;97701.63;;;18.49;100.00
76746;BME280;65671;49.976;20.038;2023-07-31T06:08:01;97708.81;;;18.24;100.00
76746;BME280;65671;49.976;20.038;2023-07-31T06:10:27;97712.50;;;18.39;99.02
76746;BME280;65671;49.976;20.038;2023-07-31T06:12:53;97706.81;;;18.25;99.28
76746;BME280;65671;49.976;20.038;2023-07-31T06:15:19;97710.72;;;18.46;99.48
76746;BME280;65671;49.976;20.038;2023-07-31T06:17:45;97711.09;;;18.04;100.00
76746;BME280;65671;49.976;20.038;2023-07-31T06:20:11;97700.66;;;18.12;100.00
76746;BME280;65671;49.976;20.038;2023-07-31T06:22:36;97706.72;;;17.85;99.52
76746;BME280;65671;49.976;20.038;2023-07-31T06:25:02;97698.88;;;17.96;100.00
76746;BME280;65671;49.976;20.038;2023-07-31T06:27:28;97711.00;;;17.86;100.00
76746;BME280;65671;49.976;20.038;2023-07-31T06:29:53;97709.09;;;18.26;100.00
76746;BME280;65671;49.976;20.038;2023-07-31T06:32:19;97703.91;;;18.50;100.00
76746;BME280;65671;49.976;20.038;2023-07-31T06:34:44;97713.41;;;18.36;100.00
76746;BME280;65671;49.976;20.038;2023-07-31T06:37:10;97715.44;;;18.14;100.00
76746;BME280;65671;49.976;20.038;2023-07-31T06:39:35;97712.91;;;17.76;100.00
76746;BME280;65671;49.976;20.038;2023-07-31T06:42:01;97700.38;;;17.54;100.00
76746;BME280;65671;49.976;20.038;2023-07-31T06:44:26;97700.53;;;17.72;100.00
76746;BME280;65671;49.976;20.038;2023-07-31T06:46:52;97702.50;;;17.93;100.00
76746;BME280;65671;49.976;20.038;2023-07-31T06:49:17;97701.75;;;17.93;100.00
76746;BME280;65671;49.976;20.038;2023-07-31T06:51:43;97699.97;;;17.77;100.00
76746;BME280;65671;49.976;20.038;2023-07-31T06:54:09;97704.59;;;17.89;100.00
76746;BME280;65671;49.976;20.038;2023-07-31T06:56:35;97707.09;;;17.96;100.00
76746;BME280;65671;49.976;20.038;2023-07-31T06:59:00;97704.88;;;18.04;99.44
76746;BME280;65671;49.976;20.038;2023-07-31T07:01:26;97705.25;;;18.15;99.10
76746;BME280;65671;49.976;20.038;2023-07-31T07:03:52;97704.94;;;17.91;99.50
76746;BME280;65671;49.976;20.038;2023-07-31T07:06:18;97720.44;;;18.07;99.98
76746;BME280;65671;49.976;20.038;2023-07-31T07:08:44;97714.13;;;17.97;100.00
76746;BME280;65671;49.976;20.038;2023-07-31T07:11:09;97707.47;;;18.07;100.00
76746;BME280;65671;49.976;20.038;2023-07-31T07:13:35;97705.91;;;17.97;97.58
76746;BME280;65671;49.976;20.038;2023-07-31T07:16:01;97710.44;;;18.22;98.69
76746;BME280;65671;49.976;20.038;2023-07-31T07:18:26;97710.41;;;17.91;97.95
76746;BME280;65671;49.976;20.038;2023-07-31T07:20:53;97708.09;;;18.11;98.55
76746;BME280;65671;49.976;20.038;2023-07-31T07:23:19;97714.84;;;18.19;98.38
76746;BME280;65671;49.976;20.038;2023-07-31T07:25:46;97713.06;;;18.25;99.17
76746;BME280;65671;49.976;20.038;2023-07-31T07:28:12;97709.19;;;18.45;100.00
76746;BME280;65671;49.976;20.038;2023-07-31T07:30:37;97706.19;;;18.52;98.20
76746;BME280;65671;49.976;20.038;2023-07-31T07:33:03;97704.59;;;18.72;94.81
76746;BME280;65671;49.976;20.038;2023-07-31T07:35:29;97705.84;;;18.71;96.46
76746;BME280;65671;49.976;20.038;2023-07-31T07:37:55;97709.63;;;18.65;94.28
76746;BME280;65671;49.976;20.038;2023-07-31T07:40:22;97715.59;;;18.42;95.97
76746;BME280;65671;49.976;20.038;2023-07-31T07:42:47;97706.06;;;18.24;98.06
76746;BME280;65671;49.976;20.038;2023-07-31T07:45:13;97700.13;;;18.04;97.13
76746;BME280;65671;49.976;20.038;2023-07-31T07:47:40;97720.56;;;18.03;98.44
76746;BME280;65671;49.976;20.038;2023-07-31T07:50:06;97708.25;;;18.38;98.03
76746;BME280;65671;49.976;20.038;2023-07-31T07:52:32;97715.91;;;18.74;95.09
76746;BME280;65671;49.976;20.038;2023-07-31T07:54:57;97725.28;;;19.04;97.00
76746;BME280;65671;49.976;20.038;2023-07-31T07:57:23;97717.56;;;18.81;94.74
76746;BME280;65671;49.976;20.038;2023-07-31T07:59:48;97717.78;;;18.95;97.72
76746;BME280;65671;49.976;20.038;2023-07-31T08:02:14;97735.00;;;18.96;93.76
76746;BME280;65671;49.976;20.038;2023-07-31T08:04:39;97735.59;;;18.91;94.60
76746;BME280;65671;49.976;20.038;2023-07-31T08:07:05;97731.03;;;18.88;94.83
76746;BME280;65671;49.976;20.038;2023-07-31T08:09:30;97731.75;;;18.79;91.07
76746;BME280;65671;49.976;20.038;2023-07-31T08:11:56;97733.19;;;19.02;92.33
76746;BME280;65671;49.976;20.038;2023-07-31T08:14:27;97731.25;;;19.12;92.58
76746;BME280;65671;49.976;20.038;2023-07-31T08:16:52;97732.31;;;19.14;91.21
76746;BME280;65671;49.976;20.038;2023-07-31T08:19:18;97734.78;;;19.21;91.23
76746;BME280;65671;49.976;20.038;2023-07-31T08:21:43;97729.91;;;19.34;91.70
76746;BME280;65671;49.976;20.038;2023-07-31T08:24:09;97730.34;;;19.24;91.19
76746;BME280;65671;49.976;20.038;2023-07-31T08:26:34;97731.63;;;19.50;90.16
76746;BME280;65671;49.976;20.038;2023-07-31T08:29:00;97735.56;;;19.40;90.16
76746;BME280;65671;49.976;20.038;2023-07-31T08:31:25;97723.31;;;19.23;89.50
76746;BME280;65671;49.976;20.038;2023-07-31T08:33:52;97738.31;;;19.40;88.35
76746;BME280;65671;49.976;20.038;2023-07-31T08:36:17;97733.59;;;19.40;90.65
76746;BME280;65671;49.976;20.038;2023-07-31T08:38:45;97739.72;;;19.63;87.35
76746;BME280;65671;49.976;20.038;2023-07-31T08:41:10;97740.94;;;19.71;85.26
76746;BME280;65671;49.976;20.038;2023-07-31T08:43:36;97716.69;;;19.42;88.41
76746;BME280;65671;49.976;20.038;2023-07-31T08:46:03;97744.75;;;19.91;85.48
76746;BME280;65671;49.976;20.038;2023-07-31T08:48:29;97739.59;;;19.66;89.42
76746;BME280;65671;49.976;20.038;2023-07-31T08:50:56;97742.31;;;19.75;88.34
76746;BME280;65671;49.976;20.038;2023-07-31T08:53:21;97742.00;;;19.82;88.23
76746;BME280;65671;49.976;20.038;2023-07-31T08:55:48;97739.41;;;19.88;85.06
76746;BME280;65671;49.976;20.038;2023-07-31T08:58:15;97741.72;;;19.80;87.77
76746;BME280;65671;49.976;20.038;2023-07-31T09:00:41;97740.31;;;20.03;87.57
76746;BME280;65671;49.976;20.038;2023-07-31T09:03:13;97740.91;;;20.07;85.33
76746;BME280;65671;49.976;20.038;2023-07-31T09:05:42;97737.84;;;20.05;83.96
76746;BME280;65671;49.976;20.038;2023-07-31T09:08:09;97735.41;;;20.25;83.42
76746;BME280;65671;49.976;20.038;2023-07-31T09:10:35;97728.38;;;20.15;84.50
76746;BME280;65671;49.976;20.038;2023-07-31T09:13:01;97738.47;;;20.09;86.58
76746;BME280;65671;49.976;20.038;2023-07-31T09:15:28;97739.41;;;19.88;84.16
76746;BME280;65671;49.976;20.038;2023-07-31T09:18:01;97737.56;;;19.94;83.00
76746;BME280;65671;49.976;20.038;2023-07-31T09:20:27;97727.78;;;20.02;86.12
76746;BME280;65671;49.976;20.038;2023-07-31T09:22:52;97729.44;;;20.18;88.33
76746;BME280;65671;49.976;20.038;2023-07-31T09:25:19;97720.16;;;19.97;82.48
76746;BME280;65671;49.976;20.038;2023-07-31T09:27:57;97726.25;;;20.19;82.35
76746;BME280;65671;49.976;20.038;2023-07-31T09:30:23;97734.47;;;20.28;83.96
76746;BME280;65671;49.976;20.038;2023-07-31T09:32:50;97729.09;;;20.43;87.06
76746;BME280;65671;49.976;20.038;2023-07-31T09:37:41;97717.97;;;21.03;79.93
76746;BME280;65671;49.976;20.038;2023-07-31T09:40:06;97720.94;;;21.23;82.01
76746;BME280;65671;49.976;20.038;2023-07-31T09:42:34;97723.94;;;21.73;79.84
76746;BME280;65671;49.976;20.038;2023-07-31T09:45:09;97708.84;;;21.44;74.47
76746;BME280;65671;49.976;20.038;2023-07-31T09:47:34;97716.16;;;21.71;75.00
76746;BME280;65671;49.976;20.038;2023-07-31T09:50:00;97717.66;;;22.25;71.68
76746;BME280;65671;49.976;20.038;2023-07-31T09:52:28;97708.53;;;22.19;74.46
76746;BME280;65671;49.976;20.038;2023-07-31T09:54:54;97706.25;;;21.79;75.69
76746;BME280;65671;49.976;20.038;2023-07-31T09:57:21;97700.81;;;21.94;76.28
76746;BME280;65671;49.976;20.038;2023-07-31T09:59:48;97698.88;;;21.47;78.64
76746;BME280;65671;49.976;20.038;2023-07-31T10:02:21;97692.16;;;20.68;75.70
76746;BME280;65671;49.976;20.038;2023-07-31T10:04:49;97694.69;;;21.13;74.49
76746;BME280;65671;49.976;20.038;2023-07-31T10:07:17;97693.28;;;21.41;75.14
76746;BME280;65671;49.976;20.038;2023-07-31T10:09:44;97697.63;;;21.86;76.65
76746;BME280;65671;49.976;20.038;2023-07-31T10:12:11;97691.09;;;21.45;72.88
76746;BME280;65671;49.976;20.038;2023-07-31T10:14:38;97697.19;;;21.49;80.60
76746;BME280;65671;49.976;20.038;2023-07-31T10:17:05;97690.47;;;21.65;72.93
76746;BME280;65671;49.976;20.038;2023-07-31T10:19:32;97685.88;;;21.47;72.26
76746;BME280;65671;49.976;20.038;2023-07-31T10:21:59;97687.34;;;21.57;72.18
76746;BME280;65671;49.976;20.038;2023-07-31T10:24:25;97681.16;;;21.62;70.78
76746;BME280;65671;49.976;20.038;2023-07-31T10:26:52;97690.25;;;22.36;69.03
76746;BME280;65671;49.976;20.038;2023-07-31T10:29:18;97678.88;;;22.63;67.88
76746;BME280;65671;49.976;20.038;2023-07-31T10:31:45;97694.81;;;22.39;67.91
76746;BME280;65671;49.976;20.038;2023-07-31T10:34:12;97677.28;;;22.57;72.05
76746;BME280;65671;49.976;20.038;2023-07-31T10:36:38;97677.81;;;23.10;74.53
76746;BME280;65671;49.976;20.038;2023-07-31T10:39:04;97666.38;;;22.83;73.14
76746;BME280;65671;49.976;20.038;2023-07-31T10:41:49;97673.72;;;22.21;68.11
76746;BME280;65671;49.976;20.038;2023-07-31T10:44:16;97666.03;;;22.11;63.53
76746;BME280;65671;49.976;20.038;2023-07-31T10:46:42;97662.06;;;21.74;67.35
76746;BME280;65671;49.976;20.038;2023-07-31T10:49:20;97658.66;;;21.64;66.01
76746;BME280;65671;49.976;20.038;2023-07-31T10:51:47;97649.06;;;22.18;66.91
76746;BME280;65671;49.976;20.038;2023-07-31T10:54:16;97650.06;;;22.99;72.18
76746;BME280;65671;49.976;20.038;2023-07-31T10:56:46;97648.13;;;23.25;66.76
76746;BME280;65671;49.976;20.038;2023-07-31T10:59:15;97650.75;;;23.55;66.67
76746;BME280;65671;49.976;20.038;2023-07-31T11:01:56;97646.44;;;23.54;66.39
76746;BME280;65671;49.976;20.038;2023-07-31T11:04:28;97639.00;;;23.40;66.95
76746;BME280;65671;49.976;20.038;2023-07-31T11:07:01;97637.84;;;23.72;65.95
76746;BME280;65671;49.976;20.038;2023-07-31T11:09:32;97636.91;;;23.80;61.44
76746;BME280;65671;49.976;20.038;2023-07-31T11:11:59;97642.38;;;22.89;60.49
76746;BME280;65671;49.976;20.038;2023-07-31T11:14:24;97642.59;;;23.25;67.97
76746;BME280;65671;49.976;20.038;2023-07-31T11:16:50;97636.44;;;22.96;64.25
76746;BME280;65671;49.976;20.038;2023-07-31T11:19:25;97637.31;;;22.67;59.64
76746;BME280;65671;49.976;20.038;2023-07-31T11:21:52;97630.91;;;23.36;66.53
76746;BME280;65671;49.976;20.038;2023-07-31T11:24:18;97625.94;;;23.92;64.59
76746;BME280;65671;49.976;20.038;2023-07-31T11:26:53;97615.97;;;24.25;64.92
76746;BME280;65671;49.976;20.038;2023-07-31T11:29:19;97626.31;;;23.73;60.75
76746;BME280;65671;49.976;20.038;2023-07-31T11:31:46;97628.53;;;24.01;61.68
76746;BME280;65671;49.976;20.038;2023-07-31T11:34:12;97630.72;;;23.19;59.51
76746;BME280;65671;49.976;20.038;2023-07-31T11:36:37;97627.25;;;23.45;59.72
76746;BME280;65671;49.976;20.038;2023-07-31T11:39:10;97631.38;;;24.37;58.51
76746;BME280;65671;49.976;20.038;2023-07-31T11:41:36;97628.47;;;24.52;60.17
76746;BME280;65671;49.976;20.038;2023-07-31T11:44:02;97624.34;;;24.79;59.91
76746;BME280;65671;49.976;20.038;2023-07-31T11:46:30;97621.41;;;24.51;60.54
76746;BME280;65671;49.976;20.038;2023-07-31T11:48:59;97626.13;;;24.39;61.75
76746;BME280;65671;49.976;20.038;2023-07-31T11:51:25;97624.72;;;23.41;55.32
76746;BME280;65671;49.976;20.038;2023-07-31T11:53:55;97625.38;;;23.36;59.75
76746;BME280;65671;49.976;20.038;2023-07-31T11:56:23;97631.69;;;23.82;58.92
76746;BME280;65671;49.976;20.038;2023-07-31T11:58:53;97615.84;;;24.46;60.24
76746;BME280;65671;49.976;20.038;2023-07-31T12:01:21;97610.94;;;24.24;59.99
76746;BME280;65671;49.976;20.038;2023-07-31T12:03:48;97612.88;;;23.92;58.37
76746;BME280;65671;49.976;20.038;2023-07-31T12:06:14;97607.94;;;23.70;56.38
76746;BME280;65671;49.976;20.038;2023-07-31T12:08:40;97607.81;;;23.59;57.52
76746;BME280;65671;49.976;20.038;2023-07-31T12:11:07;97609.56;;;23.37;57.96
76746;BME280;65671;49.976;20.038;2023-07-31T12:13:35;97596.91;;;23.50;60.99
76746;BME280;65671;49.976;20.038;2023-07-31T12:16:01;97598.38;;;23.71;56.08
76746;BME280;65671;49.976;20.038;2023-07-31T12:18:29;97593.56;;;24.66;56.01
76746;BME280;65671;49.976;20.038;2023-07-31T12:20:57;97588.72;;;24.55;55.83
76746;BME280;65671;49.976;20.038;2023-07-31T12:23:33;97592.50;;;24.94;55.57
76746;BME280;65671;49.976;20.038;2023-07-31T12:26:25;97583.19;;;25.03;60.15
76746;BME280;65671;49.976;20.038;2023-07-31T12:28:58;97581.25;;;25.26;52.98
76746;BME280;65671;49.976;20.038;2023-07-31T12:31:27;97584.41;;;24.49;51.08
76746;BME280;65671;49.976;20.038;2023-07-31T12:33:55;97582.09;;;23.07;54.76
76746;BME280;65671;49.976;20.038;2023-07-31T12:36:22;97586.72;;;23.16;58.28
76746;BME280;65671;49.976;20.038;2023-07-31T12:38:49;97579.69;;;22.74;58.93
76746;BME280;65671;49.976;20.038;2023-07-31T12:41:15;97580.31;;;23.50;58.68
76746;BME280;65671;49.976;20.038;2023-07-31T12:43:41;97569.13;;;23.13;56.74
76746;BME280;65671;49.976;20.038;2023-07-31T12:46:08;97569.53;;;24.09;59.47
76746;BME280;65671;49.976;20.038;2023-07-31T12:48:33;97563.50;;;24.48;52.39
76746;BME280;65671;49.976;20.038;2023-07-31T12:50:59;97571.09;;;23.84;53.90